Time;durP1;ratioP1;P1;durP2;ratioP2;P2;SDS_P1;SDS_P2;PMS_P1;PMS_P2;Temp;Humidity;BMP_temperature;BMP_pressure;BME280_temperature;BME280_humidity;BME280_pressure;Samples;Min_cycle;Max_cycle;Signal;HPM_P1;HPM_P2
2023/08/25 00:00:33;;;;;;;43.63;37.38;;;;;;;19.09;100.00;100721.66;5074801;28;20051;-55
2023/08/25 00:02:58;;;;;;;47.13;38.97;;;;;;;19.40;100.00;100768.44;5092725;28;20036;-54
2023/08/25 00:05:23;;;;;;;47.72;39.30;;;;;;;19.46;100.00;100778.69;5090174;28;20093;-53
2023/08/25 00:07:49;;;;;;;49.13;39.53;;;;;;;19.41;100.00;100781.69;5092876;28;20538;-50
2023/08/25 00:10:14;;;;;;;50.35;39.30;;;;;;;19.26;100.00;100741.84;5092697;28;20406;-56
2023/08/25 00:12:41;;;;;;;54.55;42.20;;;;;;;19.35;100.00;100765.22;5092986;28;20055;-54
2023/08/25 00:15:07;;;;;;;51.30;41.25;;;;;;;19.44;100.00;100778.78;5091542;28;20066;-52
2023/08/25 00:17:32;;;;;;;51.20;42.20;;;;;;;19.47;100.00;100772.38;5092662;28;20132;-52
2023/08/25 00:19:58;;;;;;;57.08;42.30;;;;;;;19.43;100.00;100766.44;5092619;28;20481;-51
2023/08/25 00:22:23;;;;;;;49.45;40.67;;;;;;;19.46;100.00;100770.69;5091171;28;20395;-56
2023/08/25 00:24:49;;;;;;;52.30;42.08;;;;;;;19.01;100.00;100700.84;5091143;28;20502;-51
2023/08/25 00:27:14;;;;;;;52.13;41.35;;;;;;;18.93;100.00;100695.19;5092473;28;20054;-56
2023/08/25 00:29:39;;;;;;;54.17;41.10;;;;;;;18.91;100.00;100698.94;5092562;28;20039;-51
2023/08/25 00:32:05;;;;;;;53.33;41.05;;;;;;;19.31;100.00;100763.72;5092524;28;20032;-48
2023/08/25 00:34:30;;;;;;;54.08;40.97;;;;;;;18.88;100.00;100709.81;5091276;28;20024;-52
2023/08/25 00:36:56;;;;;;;55.13;40.75;;;;;;;19.20;100.00;100763.63;5092462;28;20372;-54
2023/08/25 00:39:21;;;;;;;46.92;38.55;;;;;;;19.16;100.00;100756.78;5090937;28;20032;-50
2023/08/25 00:41:46;;;;;;;51.92;38.97;;;;;;;19.12;100.00;100757.97;5091942;28;20111;-54
2023/08/25 00:44:12;;;;;;;50.25;39.38;;;;;;;18.75;100.00;100703.59;5091757;28;20402;-51
2023/08/25 00:46:37;;;;;;;51.03;39.13;;;;;;;19.07;100.00;100756.44;5092163;28;20040;-54
2023/08/25 00:49:03;;;;;;;51.78;38.25;;;;;;;19.09;100.00;100764.34;5092303;28;20038;-54
2023/08/25 00:51:28;;;;;;;47.75;38.35;;;;;;;19.04;100.00;100767.34;5091094;28;20419;-51
2023/08/25 00:53:53;;;;;;;46.22;38.78;;;;;;;19.01;100.00;100764.88;5091091;28;20032;-54
2023/08/25 00:56:19;;;;;;;53.63;39.78;;;;;;;18.96;100.00;100752.81;5092402;28;20410;-55
2023/08/25 00:58:45;;;;;;;49.70;38.63;;;;;;;18.63;100.00;100709.75;5094827;28;20398;-53
2023/08/25 01:01:11;;;;;;;55.08;40.30;;;;;;;18.97;100.00;100786.53;5095151;28;20031;-57
2023/08/25 01:03:38;;;;;;;58.40;41.72;;;;;;;18.92;100.00;100784.16;5094981;28;20046;-56
2023/08/25 01:06:04;;;;;;;44.97;36.58;;;;;;;18.45;100.00;100710.00;5094886;28;20115;-53
2023/08/25 01:08:30;;;;;;;60.80;41.28;;;;;;;18.77;100.00;100765.66;5095648;28;20601;-50
2023/08/25 01:11:54;;;;;;;55.60;39.45;;;;;;;18.78;100.00;100778.06;5093799;28;20414;-57
2023/08/25 01:14:35;;;;;;;54.25;39.10;;;;;;;18.75;100.00;100773.78;5013042;28;20037;-53
2023/08/25 01:17:32;;;;;;;46.78;37.00;;;;;;;18.35;100.00;100716.94;4997112;28;20030;-55
2023/08/25 01:20:06;;;;;;;53.95;39.35;;;;;;;18.26;100.00;100706.88;5083692;28;20040;-54
2023/08/25 01:22:50;;;;;;;56.67;39.60;;;;;;;18.64;100.00;100773.66;5094373;28;20043;-53
2023/08/25 01:25:29;;;;;;;61.20;41.65;;;;;;;18.68;100.00;100768.97;5095731;28;20067;-51
2023/08/25 01:27:56;;;;;;;62.90;44.13;;;;;;;18.73;100.00;100772.19;5093738;28;20024;-54
2023/08/25 01:30:30;;;;;;;57.38;42.15;;;;;;;18.33;100.00;100700.16;5095729;28;20523;-51
2023/08/25 01:32:55;;;;;;;66.35;48.22;;;;;;;18.52;100.00;100716.69;5095618;28;20036;-52
2023/08/25 01:35:26;;;;;;;67.60;48.70;;;;;;;18.87;100.00;100751.63;5094290;28;20027;-49
2023/08/25 01:38:02;;;;;;;71.35;51.05;;;;;;;19.09;100.00;100764.34;5095846;28;20032;-49
2023/08/25 01:40:33;;;;;;;68.22;46.92;;;;;;;18.81;100.00;100704.03;5077395;28;20387;-50
2023/08/25 01:42:59;;;;;;;65.25;45.88;;;;;;;19.23;100.00;100771.41;5095327;28;20050;-55
2023/08/25 01:45:25;;;;;;;63.83;44.78;;;;;;;19.15;100.00;100749.75;5093974;28;20085;-53
2023/08/25 01:47:52;;;;;;;63.88;43.63;;;;;;;19.18;100.00;100757.50;5094150;28;20119;-57
2023/08/25 01:50:19;;;;;;;56.13;42.22;;;;;;;19.13;100.00;100759.66;5093958;28;20180;-57
2023/08/25 01:52:44;;;;;;;56.15;42.50;;;;;;;18.83;100.00;100717.25;5077406;28;20383;-56
2023/08/25 01:55:10;;;;;;;56.95;40.78;;;;;;;18.58;100.00;100675.44;5095357;28;20036;-52
2023/08/25 01:57:35;;;;;;;58.40;39.85;;;;;;;18.95;100.00;100754.63;5093995;28;20063;-50
2023/08/25 02:00:01;;;;;;;55.85;38.40;;;;;;;18.45;100.00;100669.16;5094876;28;20043;-54
2023/08/25 02:02:26;;;;;;;57.30;40.05;;;;;;;18.72;100.00;100725.13;5092643;28;20044;-51
2023/08/25 02:04:51;;;;;;;56.92;39.80;;;;;;;18.83;100.00;100746.59;5093845;28;20043;-50
2023/08/25 02:07:17;;;;;;;58.70;38.85;;;;;;;18.80;100.00;100739.66;5095240;28;20028;-52
2023/08/25 02:09:42;;;;;;;65.03;39.35;;;;;;;18.45;100.00;100687.81;5094983;28;20036;-61
2023/08/25 02:12:07;;;;;;;61.45;40.70;;;;;;;18.78;100.00;100754.91;5094825;28;20403;-53
2023/08/25 02:14:33;;;;;;;57.60;40.35;;;;;;;18.43;100.00;100679.94;5095054;28;20406;-56
2023/08/25 02:16:58;;;;;;;55.25;39.33;;;;;;;18.47;100.00;100680.59;5092669;28;20036;-52
2023/08/25 02:19:23;;;;;;;61.28;41.95;;;;;;;18.93;100.00;100753.03;5094429;28;20081;-59
2023/08/25 02:21:49;;;;;;;55.13;40.30;;;;;;;18.98;100.00;100748.22;5094965;28;20038;-51
2023/08/25 02:24:14;;;;;;;52.72;37.97;;;;;;;18.81;100.00;100709.38;5094746;28;20040;-56
2023/08/25 02:26:39;;;;;;;50.55;38.15;;;;;;;19.01;100.00;100732.84;5094933;28;20035;-57
2023/08/25 02:29:05;;;;;;;55.22;37.95;;;;;;;18.56;100.00;100668.50;5093386;28;20081;-54
2023/08/25 02:31:31;;;;;;;55.65;39.67;;;;;;;18.82;100.00;100718.22;5093296;28;20530;-57
2023/08/25 02:33:56;;;;;;;58.40;40.05;;;;;;;18.29;100.00;100629.41;5092993;28;20057;-59
2023/08/25 02:36:22;;;;;;;63.40;38.72;;;;;;;18.80;100.00;100712.13;5094328;28;20035;-51
2023/08/25 02:38:47;;;;;;;58.00;41.05;;;;;;;18.77;100.00;100709.66;5094379;28;20032;-50
2023/08/25 02:41:12;;;;;;;62.20;42.72;;;;;;;18.32;100.00;100649.66;5094395;28;20121;-57
2023/08/25 02:43:38;;;;;;;64.13;41.95;;;;;;;17.88;100.00;100572.72;5091708;28;20036;-50
2023/08/25 02:46:03;;;;;;;64.70;41.67;;;;;;;18.60;100.00;100708.16;5094276;28;20501;-50
2023/08/25 02:48:28;;;;;;;76.50;44.50;;;;;;;18.29;100.00;100652.50;5094187;28;20467;-53
2023/08/25 02:50:54;;;;;;;70.20;44.45;;;;;;;18.10;100.00;100622.72;5094400;28;20028;-52
2023/08/25 02:53:19;;;;;;;77.07;48.30;;;;;;;18.42;100.00;100685.38;5094315;28;20050;-52
2023/08/25 02:55:46;;;;;;;69.28;43.20;;;;;;;18.43;100.00;100690.59;5094212;28;20068;-56
2023/08/25 02:58:11;;;;;;;86.07;47.08;;;;;;;17.99;100.00;100610.13;5092533;28;20077;-51
2023/08/25 03:00:36;;;;;;;81.93;46.85;;;;;;;18.12;100.00;100627.00;5092860;28;20028;-49
2023/08/25 03:03:02;;;;;;;71.97;45.72;;;;;;;18.54;100.00;100695.25;5091321;28;20044;-56
2023/08/25 03:05:27;;;;;;;85.10;45.70;;;;;;;18.12;100.00;100604.84;5094112;28;20395;-55
2023/08/25 03:07:53;;;;;;;74.25;45.42;;;;;;;18.30;100.00;100622.25;5093944;28;20039;-57
2023/08/25 03:10:18;;;;;;;78.10;47.10;;;;;;;18.69;100.00;100688.88;5093863;28;20055;-54
2023/08/25 03:12:44;;;;;;;79.65;46.45;;;;;;;18.71;100.00;100684.28;5092465;28;20471;-51
2023/08/25 03:15:09;;;;;;;83.78;49.13;;;;;;;18.47;100.00;100633.50;5093597;28;20032;-53
2023/08/25 03:17:35;;;;;;;79.22;45.92;;;;;;;18.84;100.00;100678.97;5092697;28;20517;-52
2023/08/25 03:20:00;;;;;;;78.55;45.75;;;;;;;18.50;100.00;100611.97;5093554;28;20076;-54
2023/08/25 03:22:26;;;;;;;81.13;46.78;;;;;;;18.41;100.00;100585.94;5093085;28;20158;-56
2023/08/25 03:24:51;;;;;;;76.60;44.53;;;;;;;18.64;100.00;100629.69;5075137;28;20032;-54
2023/08/25 03:27:16;;;;;;;83.85;46.17;;;;;;;18.99;100.00;100677.91;5093464;28;20040;-56
2023/08/25 03:29:42;;;;;;;72.97;44.83;;;;;;;18.92;100.00;100649.94;5093497;28;20032;-51
2023/08/25 03:32:08;;;;;;;78.28;44.92;;;;;;;18.64;100.00;100599.50;5093449;28;20040;-49
2023/08/25 03:34:33;;;;;;;83.65;46.95;;;;;;;18.82;100.00;100620.41;5091959;28;20050;-58
2023/08/25 03:36:58;;;;;;;85.60;48.53;;;;;;;18.67;100.00;100585.97;5092402;28;20040;-50
2023/08/25 03:39:24;;;;;;;91.53;48.33;;;;;;;19.12;100.00;100665.41;5093430;28;20118;-56
2023/08/25 03:41:49;;;;;;;90.53;50.80;;;;;;;19.16;100.00;100660.72;5093231;28;20032;-50
2023/08/25 03:44:15;;;;;;;86.85;49.08;;;;;;;19.18;100.00;100666.78;5093115;28;20050;-51
2023/08/25 03:46:40;;;;;;;82.75;48.75;;;;;;;18.86;100.00;100605.03;5091917;28;20088;-55
2023/08/25 03:49:09;;;;;;;95.65;52.08;;;;;;;18.90;100.00;100598.53;5093146;28;20063;-50
2023/08/25 03:51:35;;;;;;;89.47;50.33;;;;;;;18.78;100.00;100583.38;5093156;28;20364;-55
2023/08/25 03:54:00;;;;;;;77.43;45.97;;;;;;;19.26;100.00;100659.97;5073981;28;20059;-57
2023/08/25 03:56:26;;;;;;;97.18;52.78;;;;;;;19.26;100.00;100665.31;5093284;28;20047;-54
2023/08/25 03:58:51;;;;;;;83.95;49.90;;;;;;;19.24;100.00;100643.19;5093034;28;20434;-50
2023/08/25 04:01:17;;;;;;;84.25;48.58;;;;;;;18.91;100.00;100581.59;5091495;28;20035;-53
2023/08/25 04:03:42;;;;;;;102.25;53.03;;;;;;;19.26;100.00;100635.09;5092954;28;20173;-53
2023/08/25 04:06:07;;;;;;;96.57;52.50;;;;;;;19.30;100.00;100634.75;5093005;28;20065;-54
2023/08/25 04:08:33;;;;;;;85.25;50.05;;;;;;;19.29;100.00;100641.06;5092694;28;20038;-52
2023/08/25 04:10:58;;;;;;;95.13;53.65;;;;;;;18.88;100.00;100564.00;5091330;28;20044;-56
2023/08/25 04:13:24;;;;;;;84.28;52.55;;;;;;;19.32;100.00;100640.81;5091898;28;20048;-55
2023/08/25 04:15:56;;;;;;;90.80;52.97;;;;;;;18.97;100.00;100578.47;5092525;28;20033;-54
2023/08/25 04:18:22;;;;;;;86.10;52.05;;;;;;;19.11;100.00;100599.69;5092622;28;20113;-51
2023/08/25 04:20:48;;;;;;;104.18;54.60;;;;;;;19.08;100.00;100589.22;5092802;28;20059;-56
2023/08/25 04:23:13;;;;;;;96.28;55.47;;;;;;;19.00;100.00;100573.75;5091314;28;20458;-51
2023/08/25 04:25:38;;;;;;;96.60;55.22;;;;;;;19.32;100.00;100621.31;5092638;28;20032;-49
2023/08/25 04:28:04;;;;;;;110.15;55.97;;;;;;;19.41;100.00;100631.38;5091733;28;20032;-54
2023/08/25 04:30:29;;;;;;;102.75;57.65;;;;;;;19.42;100.00;100633.91;5092442;28;20046;-56
2023/08/25 04:32:55;;;;;;;106.35;57.40;;;;;;;19.36;100.00;100620.13;5091299;28;20055;-51
2023/08/25 04:35:20;;;;;;;93.30;55.13;;;;;;;19.43;100.00;100637.44;5092450;28;20036;-54
2023/08/25 04:37:50;;;;;;;99.43;56.72;;;;;;;19.44;100.00;100641.81;5091811;28;20497;-54
2023/08/25 04:40:16;;;;;;;89.00;54.37;;;;;;;19.46;100.00;100640.75;5092286;28;20542;-55
2023/08/25 04:42:42;;;;;;;94.63;53.55;;;;;;;19.46;100.00;100645.22;5092067;28;20040;-52
2023/08/25 04:45:09;;;;;;;106.05;56.85;;;;;;;19.48;100.00;100654.81;5091103;28;20101;-54
2023/08/25 04:47:34;;;;;;;104.40;55.72;;;;;;;19.38;100.00;100640.38;5091136;28;20076;-52
2023/08/25 04:50:03;;;;;;;102.80;56.08;;;;;;;19.43;100.00;100632.97;5092643;28;20032;-50
2023/08/25 04:52:29;;;;;;;91.25;53.30;;;;;;;19.52;100.00;100653.66;5091977;28;20029;-53
2023/08/25 04:54:54;;;;;;;93.78;54.00;;;;;;;19.52;100.00;100644.78;5092121;28;20036;-51
2023/08/25 04:57:20;;;;;;;88.07;52.47;;;;;;;19.53;100.00;100647.34;5092016;28;20108;-50
2023/08/25 04:59:45;;;;;;;91.90;51.63;;;;;;;19.56;100.00;100651.59;5091632;28;20390;-50
2023/08/25 05:02:10;;;;;;;80.40;50.03;;;;;;;19.48;100.00;100633.47;5090712;28;20047;-58
2023/08/25 05:04:36;;;;;;;86.72;48.33;;;;;;;19.33;100.00;100602.50;5091531;28;20050;-53
2023/08/25 05:07:01;;;;;;;77.07;47.88;;;;;;;19.59;100.00;100646.88;5090226;28;20024;-54
2023/08/25 05:09:26;;;;;;;76.05;44.97;;;;;;;19.51;100.00;100621.72;5090086;28;20035;-53
2023/08/25 05:11:51;;;;;;;73.55;43.42;;;;;;;19.61;100.00;100636.13;5091350;28;20040;-54
2023/08/25 05:14:17;;;;;;;58.83;35.08;;;;;;;19.27;100.00;100576.25;5091525;28;20067;-53
2023/08/25 05:16:42;;;;;;;51.10;33.25;;;;;;;19.47;100.00;100594.38;5091943;28;20487;-53
2023/08/25 05:19:09;;;;;;;58.03;34.88;;;;;;;19.67;100.00;100628.47;5089574;28;20478;-49
2023/08/25 05:21:34;;;;;;;57.08;34.85;;;;;;;19.59;100.00;100616.66;5091790;28;20032;-55
2023/08/25 05:24:17;;;;;;;57.35;33.70;;;;;;;19.30;100.00;100578.72;5090501;28;20533;-50
2023/08/25 05:26:43;;;;;;;48.65;33.28;;;;;;;18.97;100.00;100520.63;5090581;28;20548;-51
2023/08/25 05:29:09;;;;;;;58.20;33.08;;;;;;;19.67;100.00;100633.81;5090497;28;20032;-55
2023/08/25 05:31:34;;;;;;;50.72;32.35;;;;;;;19.62;100.00;100627.97;5091682;28;20028;-52
2023/08/25 05:33:59;;;;;;;46.80;31.05;;;;;;;19.74;100.00;100633.38;5091570;28;20122;-50
2023/08/25 05:36:25;;;;;;;47.42;30.60;;;;;;;19.80;100.00;100627.59;5090440;28;20040;-57
2023/08/25 05:38:50;;;;;;;52.72;31.50;;;;;;;19.82;100.00;100623.00;5091471;28;20131;-58
2023/08/25 05:41:15;;;;;;;50.28;31.13;;;;;;;19.47;100.00;100557.00;5091416;28;20172;-56
2023/08/25 05:43:41;;;;;;;45.85;30.27;;;;;;;19.80;100.00;100615.09;5091962;28;20116;-52
2023/08/25 05:46:06;;;;;;;45.20;30.77;;;;;;;19.82;100.00;100613.16;5095244;28;20043;-51
2023/08/25 05:48:31;;;;;;;44.05;31.20;;;;;;;19.72;100.00;100605.94;5095014;28;20147;-58
2023/08/25 05:50:57;;;;;;;42.97;31.67;;;;;;;19.77;100.00;100614.47;5094152;28;20556;-50
2023/08/25 05:53:22;;;;;;;55.15;34.30;;;;;;;19.39;100.00;100554.06;5094902;28;20162;-54
2023/08/25 05:55:49;;;;;;;46.15;31.83;;;;;;;19.81;100.00;100616.81;5093906;28;20475;-50
2023/08/25 05:58:14;;;;;;;49.08;34.05;;;;;;;19.58;100.00;100561.56;5094714;28;20032;-50
2023/08/25 06:00:40;;;;;;;49.53;33.97;;;;;;;19.95;100.00;100605.94;5095039;28;20059;-54
2023/08/25 06:03:05;;;;;;;46.33;34.28;;;;;;;19.44;100.00;100498.50;5094983;28;20253;-53
2023/08/25 06:05:30;;;;;;;50.45;33.47;;;;;;;20.20;100.00;100604.94;5094994;28;20111;-57
2023/08/25 06:07:56;;;;;;;45.25;34.05;;;;;;;20.31;100.00;100613.03;5093767;28;20392;-53
2023/08/25 06:10:21;;;;;;;48.90;36.22;;;;;;;20.32;100.00;100604.03;5094317;28;20035;-53
2023/08/25 06:12:46;;;;;;;46.95;35.85;;;;;;;20.28;100.00;100601.72;5076533;28;20051;-55
2023/08/25 06:15:12;;;;;;;55.25;37.38;;;;;;;20.34;100.00;100598.59;5093690;28;20032;-54
2023/08/25 06:17:37;;;;;;;48.00;34.63;;;;;;;20.35;100.00;100587.75;5093577;28;20044;-55
2023/08/25 06:20:03;;;;;;;46.78;36.83;;;;;;;20.38;100.00;100605.38;5094772;28;20040;-53
2023/08/25 06:22:28;;;;;;;51.25;38.25;;;;;;;20.34;100.00;100591.44;5093735;28;20485;-57
2023/08/25 06:24:54;;;;;;;48.30;35.67;;;;;;;20.39;100.00;100602.59;5093274;28;20110;-56
2023/08/25 06:27:19;;;;;;;44.85;34.83;;;;;;;20.36;100.00;100602.84;5094620;28;20040;-50
2023/08/25 06:29:45;;;;;;;45.00;35.28;;;;;;;20.36;100.00;100605.50;5094845;28;20123;-51
2023/08/25 06:32:13;;;;;;;43.55;35.30;;;;;;;20.10;100.00;100558.50;5094866;28;20119;-52
2023/08/25 06:34:38;;;;;;;38.20;34.10;;;;;;;20.23;100.00;100585.16;5094630;28;20093;-53
2023/08/25 06:37:03;;;;;;;42.65;33.67;;;;;;;20.41;100.00;100608.69;5094268;28;20372;-53
2023/08/25 06:39:29;;;;;;;38.30;31.98;;;;;;;20.10;100.00;100535.31;5091633;28;20048;-55
2023/08/25 06:41:54;;;;;;;42.83;33.20;;;;;;;20.28;100.00;100556.28;5094138;28;20055;-51
2023/08/25 06:44:19;;;;;;;45.67;34.25;;;;;;;20.34;100.00;100547.78;5094324;28;20035;-52
2023/08/25 06:46:45;;;;;;;43.30;34.92;;;;;;;20.50;100.00;100554.50;5094349;28;20047;-52
2023/08/25 06:49:11;;;;;;;42.10;35.15;;;;;;;20.92;100.00;100610.97;5092972;28;20395;-52
2023/08/25 06:51:36;;;;;;;44.85;33.92;;;;;;;20.54;100.00;100558.66;5094158;28;20115;-58
2023/08/25 06:54:03;;;;;;;41.50;31.42;;;;;;;20.85;100.00;100607.06;5094155;28;20162;-57
2023/08/25 06:56:28;;;;;;;43.45;33.97;;;;;;;20.87;100.00;100621.19;5092947;28;20121;-53
2023/08/25 06:58:53;;;;;;;41.42;33.22;;;;;;;20.85;100.00;100626.63;5091840;28;20482;-56
2023/08/25 07:01:19;;;;;;;41.10;33.30;;;;;;;20.67;100.00;100610.19;5093871;28;20036;-55
2023/08/25 07:03:44;;;;;;;42.50;35.13;;;;;;;20.59;100.00;100603.75;5094123;28;20047;-52
2023/08/25 07:06:10;;;;;;;51.00;35.58;;;;;;;20.69;100.00;100610.09;5093707;28;20064;-50
2023/08/25 07:08:36;;;;;;;46.33;34.38;;;;;;;20.76;100.00;100604.13;5093287;28;20039;-51
2023/08/25 07:11:03;;;;;;;44.28;35.20;;;;;;;20.80;100.00;100614.59;5092105;28;20032;-55
2023/08/25 07:13:29;;;;;;;42.67;34.35;;;;;;;20.41;100.00;100555.22;5093726;28;20510;-52
2023/08/25 07:15:54;;;;;;;44.03;35.08;;;;;;;20.55;100.00;100567.50;5092674;28;20036;-51
2023/08/25 07:18:20;;;;;;;44.53;34.95;;;;;;;20.48;100.00;100553.78;5093421;28;20040;-56
2023/08/25 07:20:45;;;;;;;40.35;35.08;;;;;;;20.51;100.00;100537.50;5093735;28;20074;-55
2023/08/25 07:23:11;;;;;;;46.03;35.25;;;;;;;20.92;100.00;100582.38;5093347;28;20122;-53
2023/08/25 07:25:37;;;;;;;39.38;33.65;;;;;;;21.03;100.00;100584.19;5093485;28;20035;-50
2023/08/25 07:28:03;;;;;;;37.92;31.30;;;;;;;21.19;100.00;100592.75;5093410;28;20489;-57
2023/08/25 07:30:29;;;;;;;35.50;29.30;;;;;;;21.23;100.00;100576.31;5093112;28;20124;-50
2023/08/25 07:32:54;;;;;;;39.30;31.55;;;;;;;21.28;100.00;100592.00;5092031;28;20063;-53
2023/08/25 07:35:19;;;;;;;41.15;30.85;;;;;;;21.10;100.00;100556.03;5093208;28;20065;-57
2023/08/25 07:37:45;;;;;;;34.17;30.42;;;;;;;20.78;100.00;100499.72;5091992;28;20040;-50
2023/08/25 07:40:11;;;;;;;38.08;29.20;;;;;;;21.45;100.00;100596.00;5093505;28;20043;-50
2023/08/25 07:42:36;;;;;;;33.63;26.52;;;;;;;21.36;100.00;100602.09;5093022;28;20047;-57
2023/08/25 07:45:02;;;;;;;37.58;28.88;;;;;;;21.29;100.00;100596.38;5092321;28;20059;-53
2023/08/25 07:47:28;;;;;;;35.22;26.38;;;;;;;20.92;100.00;100539.56;5091943;28;20032;-54
2023/08/25 07:49:53;;;;;;;31.80;27.13;;;;;;;20.82;100.00;100537.72;5091863;28;20480;-57
2023/08/25 07:52:18;;;;;;;35.67;26.75;;;;;;;20.80;100.00;100550.38;5093025;28;20395;-55
2023/08/25 07:54:44;;;;;;;35.10;25.60;;;;;;;21.01;100.00;100612.91;5092914;28;20036;-56
2023/08/25 07:57:09;;;;;;;35.22;25.67;;;;;;;20.56;100.00;100546.00;5093129;28;20558;-53
2023/08/25 07:59:34;;;;;;;29.70;23.02;;;;;;;20.92;100.00;100608.28;5092955;28;20040;-53
2023/08/25 08:02:00;;;;;;;27.58;22.92;;;;;;;20.65;100.00;100584.53;5090667;28;20376;-54
2023/08/25 08:04:26;;;;;;;29.73;23.90;;;;;;;20.90;100.00;100624.44;5092724;28;20055;-54
2023/08/25 08:06:51;;;;;;;31.58;23.02;;;;;;;20.52;100.00;100568.59;5091245;28;20453;-58
2023/08/25 08:09:17;;;;;;;27.40;22.58;;;;;;;20.82;100.00;100616.16;5091439;28;20089;-54
2023/08/25 08:11:43;;;;;;;28.60;21.85;;;;;;;20.87;100.00;100618.50;5092918;28;20032;-57
2023/08/25 08:14:08;;;;;;;27.15;22.35;;;;;;;20.90;100.00;100604.88;5092886;28;20392;-53
2023/08/25 08:16:33;;;;;;;28.05;19.88;;;;;;;20.93;100.00;100618.03;5091399;28;20032;-53
2023/08/25 08:18:59;;;;;;;21.10;17.73;;;;;;;20.67;100.00;100548.69;5091645;28;20047;-52
2023/08/25 08:21:24;;;;;;;21.27;16.40;;;;;;;21.16;100.00;100601.03;5092601;28;20032;-50
2023/08/25 08:23:49;;;;;;;21.48;18.75;;;;;;;21.40;100.00;100598.19;5091085;28;20047;-55
2023/08/25 08:26:15;;;;;;;25.10;19.77;;;;;;;21.39;100.00;100561.69;5092741;28;20036;-53
2023/08/25 08:28:40;;;;;;;25.17;19.50;;;;;;;21.89;100.00;100625.34;5092633;28;20395;-51
2023/08/25 08:31:05;;;;;;;26.75;18.63;;;;;;;21.67;100.00;100579.88;5092280;28;20371;-53
2023/08/25 08:33:34;;;;;;;28.80;18.33;;;;;;;22.25;100.00;100635.72;5090891;28;20028;-51
2023/08/25 08:36:00;;;;;;;23.50;17.92;;;;;;;22.38;100.00;100633.72;5092188;28;20031;-57
2023/08/25 08:38:25;;;;;;;20.55;17.90;;;;;;;22.33;100.00;100619.81;5091170;28;20475;-58
2023/08/25 08:40:51;;;;;;;21.67;16.48;;;;;;;22.50;100.00;100645.22;5091399;28;20432;-50
2023/08/25 08:43:18;;;;;;;21.05;16.98;;;;;;;22.12;100.00;100586.81;5092325;28;20114;-51
2023/08/25 08:45:45;;;;;;;22.20;17.77;;;;;;;22.37;100.00;100645.41;5090858;28;20124;-52
2023/08/25 08:48:12;;;;;;;20.80;16.33;;;;;;;21.62;100.00;100510.63;5091896;28;20097;-53
2023/08/25 08:50:37;;;;;;;19.10;14.77;;;;;;;22.56;100.00;100641.19;5092342;28;20032;-50
2023/08/25 08:53:05;;;;;;;17.27;15.48;;;;;;;22.30;100.00;100570.94;5090981;28;20058;-53
2023/08/25 08:55:32;;;;;;;17.10;14.27;;;;;;;23.15;100.00;100619.91;5090229;28;20119;-56
2023/08/25 08:57:57;;;;;;;22.92;15.77;;;;;;;23.39;100.00;100615.09;5091153;28;20058;-51
2023/08/25 09:00:23;;;;;;;21.17;14.80;;;;;;;23.34;100.00;100593.13;5091487;28;20036;-54
2023/08/25 09:02:51;;;;;;;21.92;15.00;;;;;;;23.36;100.00;100594.69;5090449;28;20050;-54
2023/08/25 09:05:18;;;;;;;22.63;15.23;;;;;;;23.22;100.00;100610.34;5091858;28;20032;-56
2023/08/25 09:07:46;;;;;;;20.92;16.88;;;;;;;22.66;100.00;100549.06;5090593;28;20060;-53
2023/08/25 09:10:12;;;;;;;20.70;16.70;;;;;;;23.14;100.00;100612.84;5090699;28;20036;-53
2023/08/25 09:12:37;;;;;;;20.92;17.52;;;;;;;23.36;100.00;100686.00;5089502;28;20510;-50
2023/08/25 09:15:07;;;;;;;20.63;15.70;;;;;;;23.30;100.00;100651.63;5091892;28;20040;-53
2023/08/25 09:17:34;;;;;;;19.65;16.00;;;;;;;23.34;100.00;100679.94;5091573;28;20119;-54
2023/08/25 09:20:05;;;;;;;17.88;14.85;;;;;;;22.94;100.00;100628.84;5093319;28;20028;-54
2023/08/25 09:22:30;;;;;;;;;;;;;;;23.13;100.00;100694.38;5096245;28;20024;-55
2023/08/25 09:24:58;;;;;;;22.33;15.52;;;;;;;22.50;100.00;100641.69;5095912;28;19912;-55
2023/08/25 09:27:25;;;;;;;22.08;15.25;;;;;;;22.66;100.00;100691.25;5095942;28;20186;-55
2023/08/25 09:30:04;;;;;;;21.73;14.88;;;;;;;22.41;100.00;100633.47;5094987;28;20035;-55
2023/08/25 09:32:30;;;;;;;19.90;14.48;;;;;;;22.40;100.00;100630.88;5078109;28;20035;-57
2023/08/25 09:34:56;;;;;;;16.30;13.32;;;;;;;22.47;100.00;100629.41;5094778;28;20032;-53
2023/08/25 09:37:21;;;;;;;21.13;16.13;;;;;;;22.35;100.00;100593.75;5095562;28;20391;-54
2023/08/25 09:39:47;;;;;;;22.33;16.52;;;;;;;23.21;100.00;100681.13;5095636;28;20039;-55
2023/08/25 09:42:12;;;;;;;21.25;16.55;;;;;;;23.22;100.00;100623.75;5095646;28;20044;-53
2023/08/25 09:44:38;;;;;;;19.75;15.15;;;;;;;23.44;100.00;100615.50;5095450;28;20098;-55
2023/08/25 09:47:06;;;;;;;17.73;14.48;;;;;;;23.74;100.00;100625.34;5094232;28;20042;-56
2023/08/25 09:49:38;;;;;;;16.85;14.98;;;;;;;24.19;100.00;100656.16;5095725;28;20093;-57
2023/08/25 09:52:05;;;;;;;18.70;13.25;;;;;;;24.51;100.00;100680.94;5095611;28;20027;-54
2023/08/25 09:54:32;;;;;;;22.95;12.43;;;;;;;24.91;100.00;100696.06;5095235;28;20502;-55
2023/08/25 09:56:58;;;;;;;18.35;13.45;;;;;;;25.29;100.00;100698.66;5094212;28;20058;-51
2023/08/25 09:59:24;;;;;;;18.70;13.32;;;;;;;25.57;100.00;100695.00;5076863;28;20028;-51
2023/08/25 10:01:49;;;;;;;16.73;12.15;;;;;;;25.95;100.00;100691.25;5093901;28;20047;-55
2023/08/25 10:04:16;;;;;;;16.10;11.70;;;;;;;26.42;100.00;100664.09;5093963;28;20043;-57
2023/08/25 10:06:41;;;;;;;14.07;11.50;;;;;;;26.98;100.00;100615.09;5093910;28;20455;-57
2023/08/25 10:09:07;;;;;;;16.33;8.60;;;;;;;28.11;100.00;100692.16;5093822;28;20059;-54
2023/08/25 10:11:42;;;;;;;13.02;9.38;;;;;;;28.62;100.00;100701.88;5095046;28;20051;-54
2023/08/25 10:14:10;;;;;;;15.63;11.15;;;;;;;29.17;100.00;100701.19;5094738;28;20087;-54
2023/08/25 10:16:39;;;;;;;14.65;10.60;;;;;;;29.01;100.00;100718.34;5093910;28;20024;-57
2023/08/25 10:19:05;;;;;;;19.92;11.35;;;;;;;28.28;100.00;100655.16;5094909;28;20067;-58
2023/08/25 10:21:30;;;;;;;15.15;9.93;;;;;;;27.80;100.00;100636.94;5094802;28;20067;-58
2023/08/25 10:23:58;;;;;;;13.02;8.57;;;;;;;27.68;100.00;100635.53;5094689;28;20036;-57
2023/08/25 10:26:24;;;;;;;14.68;10.88;;;;;;;28.04;100.00;100685.75;5093233;28;20115;-59
2023/08/25 10:28:50;;;;;;;15.07;11.25;;;;;;;28.13;100.00;100632.47;5094431;28;20083;-57
2023/08/25 10:31:15;;;;;;;13.90;11.38;;;;;;;28.53;100.00;100670.41;5094230;28;20050;-57
2023/08/25 10:33:48;;;;;;;11.98;10.57;;;;;;;28.00;100.00;100634.78;5091919;28;20036;-56
2023/08/25 10:36:15;;;;;;;12.65;10.57;;;;;;;27.38;100.00;100662.09;5092019;28;20383;-58
2023/08/25 10:39:05;;;;;;;16.55;12.18;;;;;;;26.80;100.00;100685.38;5094115;28;20036;-58
2023/08/25 10:41:39;;;;;;;18.57;11.90;;;;;;;25.99;100.00;100668.38;5086126;28;20048;-57
2023/08/25 10:44:08;;;;;;;17.10;12.90;;;;;;;25.52;100.00;100669.50;5092796;28;20299;-56
2023/08/25 10:46:34;;;;;;;20.98;12.98;;;;;;;25.03;100.00;100592.56;5092475;28;20036;-59
2023/08/25 10:49:06;;;;;;;23.10;14.07;;;;;;;25.37;100.00;100662.88;5093103;28;20418;-60
2023/08/25 10:51:33;;;;;;;20.10;13.80;;;;;;;25.33;100.00;100654.28;5094115;28;20495;-57
2023/08/25 10:53:59;;;;;;;24.15;14.93;;;;;;;25.07;100.00;100662.13;5092904;28;20051;-55
2023/08/25 10:56:25;;;;;;;17.92;14.88;;;;;;;24.92;100.00;100655.53;5094157;28;20036;-58
2023/08/25 10:58:56;;;;;;;18.70;14.95;;;;;;;24.84;100.00;100658.09;5093890;28;20056;-57